Allenton, Missouri
Current Conditions -  °F | °C
As of 8:54 PM on Saturday 24 Jan 2015 (Local Time) from KSUS Reporting Station
Broken Clouds Broken Clouds  
Wind Chill: 52°   Ceiling: 12000
Heat Index: 52°   Visibility: 10mi
Dew Point: 31°   Wind: 14mph
Humidity: 45%   Direction: 230°SW
Pressure: 29.73"   Gusts: NA
Location:  38.5°N, 90.68°W
Report Text: KSUS 250254Z 23012KT 10SM BKN120 11/M01 A2973 RMK AO2 SLP070 T01111006 58010
Loading
Personal Weather Stations






























Interactive Weather Map New forecast layout! Learn more

10-Day Weather Forecast

Advertisements
Track Severe Weather on mobile